Sparwood, British Columbia

6:32 PM MST on December 20, 2014 (GMT -0700)
Sparwood/Elk Valley | Change Station
CLOSE
Current Station
Airport
Location: Sparwood/Elk Valley,
Elevation: 3734 ft
Nearby Weather Stations

Elev 3734 ft 49.75 °N, 114.88 °W | Updated 1 hour ago

Light Snow
Light Snow
32 °F
Feels Like 26 °F
N
7
Wind Variable Wind from South

Tomorrow is forecast to be nearly the same temperature as today.

Today
High -- | Low -- °F
--% Chance of Precip.
Yesterday
High -- | Low -- °F
Precip. -- in
8:33 AM 4:40 PM
Waning Crescent, 1% visible
Pressure 29.78 in
Visibility 10.0 miles
Clouds Few 700 ft
Scattered Clouds 1100 ft
Overcast 2500 ft
Windchill 26 °F
Dew Point 28 °F
Humidity 87%
Rainfall 0.00 in
Snow Depth Not available.
UV 0 out of 12
Pollen Not available.
Air Quality Not available.
Flu Activity Not available.
METAR CWSW 210000Z 19006KT 160V220 10SM -SN FEW007 SCT011 OVC025 M00/M02 A2967 RMK ST2ST2SC4 VIS S 3 LAST OBS/NEXT 211400Z SLP082

More Conditions Fewer Conditions

Pressure 29.78 in
Visibility 10.0 miles
Clouds Few 700 ft
Scattered Clouds 1100 ft
Overcast 2500 ft
Windchill 26 °F
Dew Point 28 °F
Humidity 87%
Rainfall 0.00 in
Snow Depth Not available.
UV 0 out of 12
Pollen Not available.
Air Quality Not available.
Flu Activity Not available.
METAR CWSW 210000Z 19006KT 160V220 10SM -SN FEW007 SCT011 OVC025 M00/M02 A2967 RMK ST2ST2SC4 VIS S 3 LAST OBS/NEXT 211400Z SLP082

More Conditions Fewer Conditions

10-Day Weather Forecast

Almanac

Astronomy

Dec. 20, 2014 Rise Set
Actual Time
Civil Twilight
Nautical Twilight
Astronomical Twilight
Moon
Length of Visible Light
Length of Day
Tomorrow will be .
, % of the Moon is Illuminated

Today's Extremes

Country Highs Country Lows

Community

WunderPhotos

Upload Photos

1,779,339 photos uploaded!

WunderBlogs® & News

Nearby

Air Quality

  Air Quality AQ Index Pollutant
Not available.

Snow Depth

Station Depth Elevation

Earthquake Activity

City Distance Mag. Time & Date
Minimum magnitude displayed is 2.5.

Coastal Water Temperatures

Place Temperature

Nearby Weather Stations